Time;durP1;ratioP1;P1;durP2;ratioP2;P2;SDS_P1;SDS_P2;PMS_P1;PMS_P2;Temp;Humidity;BMP_temperature;BMP_pressure;BME280_temperature;BME280_humidity;BME280_pressure;Samples;Min_cycle;Max_cycle;Signal;HPM_P1;HPM_P2
2023/03/23 00:01:03;;;;;;;1.77;1.30;;;12.60;99.90;;;;;;5050678;28;20036;-35
2023/03/23 00:03:31;;;;;;;2.08;1.00;;;12.60;99.90;;;;;;5051536;28;20067;-36
2023/03/23 00:06:04;;;;;;;1.63;1.13;;;12.60;99.90;;;;;;5051216;28;20020;-38
2023/03/23 00:08:31;;;;;;;1.45;1.20;;;12.60;99.90;;;;;;5052105;28;20059;-40
2023/03/23 00:10:56;;;;;;;1.67;1.20;;;12.60;99.90;;;;;;5051699;28;20112;-36
2023/03/23 00:13:25;;;;;;;1.52;1.38;;;12.60;99.90;;;;;;5051572;28;20021;-34
2023/03/23 00:15:52;;;;;;;1.55;1.20;;;12.60;99.90;;;;;;5051483;28;20029;-37
2023/03/23 00:18:21;;;;;;;1.92;1.20;;;12.50;99.90;;;;;;5051802;28;20100;-38
2023/03/23 00:20:55;;;;;;;2.00;1.13;;;12.50;99.90;;;;;;5051418;28;20100;-39
2023/03/23 00:23:25;;;;;;;2.03;1.27;;;12.50;99.90;;;;;;5051691;28;20032;-34
2023/03/23 00:25:56;;;;;;;2.05;1.38;;;12.50;99.90;;;;;;5051303;28;20036;-35
2023/03/23 00:28:24;;;;;;;1.30;1.10;;;12.50;99.90;;;;;;5051909;28;20391;-38
2023/03/23 00:31:08;;;;;;;1.75;1.25;;;12.50;99.90;;;;;;5051749;28;20025;-35
2023/03/23 00:33:40;;;;;;;1.20;1.08;;;12.50;99.90;;;;;;5051862;28;20039;-36
2023/03/23 00:36:11;;;;;;;2.22;1.10;;;12.50;99.90;;;;;;5051475;28;20117;-34
2023/03/23 00:38:38;;;;;;;2.45;1.20;;;12.60;99.90;;;;;;5051307;28;20013;-38
2023/03/23 00:41:04;;;;;;;1.90;1.20;;;12.50;99.90;;;;;;5051366;28;20082;-36
2023/03/23 00:43:31;;;;;;;1.55;1.00;;;12.50;99.90;;;;;;5051064;28;20078;-36
2023/03/23 00:46:00;;;;;;;1.88;1.27;;;12.50;99.90;;;;;;5051186;28;20037;-36
2023/03/23 00:48:27;;;;;;;1.48;1.20;;;12.50;99.90;;;;;;5051340;28;20625;-36
2023/03/23 00:50:53;;;;;;;1.60;1.38;;;12.50;99.90;;;;;;5051131;28;20603;-35
2023/03/23 00:53:19;;;;;;;2.63;1.10;;;12.50;99.90;;;;;;5051367;28;20052;-40
2023/03/23 00:55:47;;;;;;;1.48;1.08;;;12.50;99.90;;;;;;5051335;28;20451;-38
2023/03/23 00:58:14;;;;;;;1.88;1.33;;;12.50;99.90;;;;;;5051729;28;20044;-35
2023/03/23 01:00:40;;;;;;;1.98;1.30;;;12.50;99.90;;;;;;5050865;28;20517;-34
2023/03/23 01:03:06;;;;;;;1.38;1.10;;;12.50;99.90;;;;;;5051291;28;20108;-34
2023/03/23 01:05:36;;;;;;;2.20;1.00;;;12.50;99.90;;;;;;5051165;28;20029;-36
2023/03/23 01:08:04;;;;;;;1.90;1.20;;;12.50;99.90;;;;;;5051318;28;20031;-34
2023/03/23 01:10:32;;;;;;;1.73;1.30;;;12.60;99.90;;;;;;5051010;28;20025;-38
2023/03/23 01:13:00;;;;;;;2.22;1.35;;;12.50;99.90;;;;;;5053120;28;20083;-38
2023/03/23 01:15:28;;;;;;;1.80;1.30;;;12.50;99.90;;;;;;5054831;28;20029;-35
2023/03/23 01:17:54;;;;;;;1.83;1.27;;;12.50;99.90;;;;;;5055192;28;20107;-38
2023/03/23 01:20:20;;;;;;;1.40;1.00;;;12.50;99.90;;;;;;5054860;28;20029;-35
2023/03/23 01:22:45;;;;;;;1.50;1.05;;;12.50;99.90;;;;;;5054821;28;20032;-35
2023/03/23 01:25:12;;;;;;;1.58;1.00;;;12.50;99.90;;;;;;5055031;28;20032;-35
2023/03/23 01:27:39;;;;;;;2.08;1.10;;;12.50;99.90;;;;;;5054811;28;20037;-36
2023/03/23 01:30:06;;;;;;;2.17;1.10;;;12.50;99.90;;;;;;5055231;28;20036;-35
2023/03/23 01:32:32;;;;;;;1.08;0.80;;;12.50;99.90;;;;;;5054885;28;20029;-36
2023/03/23 01:34:58;;;;;;;1.83;1.08;;;12.50;99.90;;;;;;5055071;28;20154;-38
2023/03/23 01:37:26;;;;;;;2.08;1.02;;;12.50;99.90;;;;;;5054633;28;20096;-34
2023/03/23 01:39:56;;;;;;;1.58;0.90;;;12.50;99.90;;;;;;5054515;28;20475;-39
2023/03/23 01:42:23;;;;;;;1.55;1.08;;;12.50;99.90;;;;;;5054693;28;20029;-34
2023/03/23 01:44:49;;;;;;;2.00;1.20;;;12.50;99.90;;;;;;5054733;28;20025;-36
2023/03/23 01:47:16;;;;;;;2.40;1.15;;;12.50;99.90;;;;;;5054893;28;20393;-38
2023/03/23 01:49:45;;;;;;;1.40;1.10;;;12.50;99.90;;;;;;5054716;28;20079;-39
2023/03/23 01:52:24;;;;;;;2.20;1.10;;;12.50;99.90;;;;;;5054720;28;20075;-36
2023/03/23 01:54:52;;;;;;;1.67;1.17;;;12.50;99.90;;;;;;5053961;28;20052;-34
2023/03/23 01:57:23;;;;;;;1.40;0.90;;;12.50;99.90;;;;;;5054399;28;20451;-35
2023/03/23 01:59:52;;;;;;;1.75;1.20;;;12.50;99.90;;;;;;5054786;28;20448;-36
2023/03/23 02:02:21;;;;;;;2.35;1.15;;;12.50;99.90;;;;;;5054565;28;20391;-36
2023/03/23 02:04:47;;;;;;;1.83;1.10;;;12.50;99.90;;;;;;5054185;28;20103;-37
2023/03/23 02:07:15;;;;;;;1.73;1.25;;;12.50;99.90;;;;;;5053566;28;20544;-34
2023/03/23 02:09:41;;;;;;;1.35;1.00;;;12.40;99.90;;;;;;5054255;28;20078;-35
2023/03/23 02:12:06;;;;;;;0.90;0.80;;;12.40;99.90;;;;;;5054296;28;20037;-34
2023/03/23 02:14:32;;;;;;;1.52;1.00;;;12.40;99.90;;;;;;5054219;28;20417;-36
2023/03/23 02:17:19;;;;;;;2.10;1.30;;;12.40;99.90;;;;;;5053708;28;20025;-36
2023/03/23 02:20:06;;;;;;;1.38;1.08;;;12.40;99.90;;;;;;5054576;28;20487;-38
2023/03/23 02:23:01;;;;;;;1.95;1.20;;;12.40;99.90;;;;;;5054030;28;20017;-34
2023/03/23 02:25:26;;;;;;;1.13;0.90;;;12.40;99.90;;;;;;5054381;28;20029;-37
2023/03/23 02:28:37;;;;;;;1.98;1.20;;;12.40;99.90;;;;;;5053809;28;20032;-35
2023/03/23 02:31:22;;;;;;;1.98;1.17;;;12.40;99.90;;;;;;5048152;28;20127;-36
2023/03/23 02:34:04;;;;;;;1.10;0.93;;;12.40;99.90;;;;;;5053948;28;20140;-36
2023/03/23 02:36:32;;;;;;;1.25;1.10;;;12.40;99.90;;;;;;5054361;28;20058;-36
2023/03/23 02:38:58;;;;;;;1.48;0.90;;;12.40;99.90;;;;;;5054603;28;20387;-36
2023/03/23 02:41:30;;;;;;;1.55;1.17;;;12.30;99.90;;;;;;5053863;28;20017;-38
2023/03/23 02:43:57;;;;;;;1.83;1.02;;;12.30;99.90;;;;;;5053815;28;20356;-36
2023/03/23 02:46:25;;;;;;;1.85;1.10;;;12.30;99.90;;;;;;5053746;28;20028;-35
2023/03/23 02:48:53;;;;;;;1.55;1.00;;;12.30;99.90;;;;;;5053608;28;20556;-37
2023/03/23 02:51:21;;;;;;;1.75;0.90;;;12.30;99.90;;;;;;5053316;28;20047;-38
2023/03/23 02:53:50;;;;;;;1.70;1.10;;;12.30;99.90;;;;;;5053555;28;20099;-34
2023/03/23 02:56:16;;;;;;;1.63;1.13;;;12.30;99.90;;;;;;5051980;28;20028;-36
2023/03/23 02:58:42;;;;;;;1.65;1.00;;;12.30;99.90;;;;;;5053049;28;20095;-34
2023/03/23 03:01:36;;;;;;;1.30;0.98;;;12.30;99.90;;;;;;5052487;28;20403;-38
2023/03/23 03:04:12;;;;;;;1.20;0.90;;;12.30;99.90;;;;;;5044360;28;20033;-35
2023/03/23 03:06:48;;;;;;;1.50;1.25;;;12.30;99.90;;;;;;5051365;28;20251;-36
2023/03/23 03:09:42;;;;;;;1.70;1.10;;;12.30;99.90;;;;;;5052648;28;20086;-38
2023/03/23 03:12:26;;;;;;;1.05;0.80;;;12.30;99.90;;;;;;5052891;28;20025;-35
2023/03/23 03:15:07;;;;;;;1.50;1.20;;;12.30;99.90;;;;;;5052181;28;20491;-36
2023/03/23 03:17:39;;;;;;;1.40;1.17;;;12.30;99.90;;;;;;5052059;28;20078;-35
2023/03/23 03:20:10;;;;;;;3.55;1.10;;;12.30;99.90;;;;;;5052256;28;20421;-34
2023/03/23 03:22:41;;;;;;;1.75;1.10;;;12.30;99.90;;;;;;5052633;28;20078;-37
2023/03/23 03:25:09;;;;;;;1.30;0.90;;;12.30;99.90;;;;;;5052605;28;20029;-34
2023/03/23 03:27:35;;;;;;;1.77;1.05;;;12.30;99.90;;;;;;5052584;28;20017;-35
2023/03/23 03:30:04;;;;;;;2.00;1.08;;;12.30;99.90;;;;;;5052125;28;20035;-38
2023/03/23 03:32:39;;;;;;;1.42;0.98;;;12.30;99.90;;;;;;5052483;28;20075;-34
2023/03/23 03:35:05;;;;;;;1.15;0.90;;;12.30;99.90;;;;;;5052397;28;20039;-37
2023/03/23 03:37:39;;;;;;;1.30;1.00;;;12.30;99.90;;;;;;5052362;28;20418;-35
2023/03/23 03:40:11;;;;;;;1.13;0.90;;;12.30;99.90;;;;;;5052188;28;20067;-38
2023/03/23 03:42:41;;;;;;;1.45;1.10;;;12.30;99.90;;;;;;5052412;28;20033;-37
2023/03/23 03:45:08;;;;;;;1.58;1.10;;;12.30;99.90;;;;;;5052457;28;20561;-36
2023/03/23 03:47:34;;;;;;;2.72;1.10;;;12.20;99.90;;;;;;5052527;28;20029;-36
2023/03/23 03:50:00;;;;;;;1.73;1.20;;;12.30;99.90;;;;;;5052740;28;20023;-35
2023/03/23 03:52:27;;;;;;;1.10;1.00;;;12.30;99.90;;;;;;5051965;28;20096;-36
2023/03/23 03:54:53;;;;;;;1.75;1.00;;;12.30;99.90;;;;;;5051536;28;20029;-36
2023/03/23 03:57:19;;;;;;;1.55;0.90;;;12.30;99.90;;;;;;5052047;28;20021;-34
2023/03/23 03:59:45;;;;;;;1.45;1.02;;;12.30;99.90;;;;;;5052544;28;20039;-36
2023/03/23 04:02:13;;;;;;;1.45;0.85;;;12.30;99.90;;;;;;5052638;28;20036;-34
2023/03/23 04:04:41;;;;;;;1.52;0.98;;;12.30;99.90;;;;;;5051973;28;20104;-34
2023/03/23 04:07:07;;;;;;;1.40;1.00;;;12.30;99.90;;;;;;5050946;28;20491;-35
2023/03/23 04:09:32;;;;;;;2.08;1.00;;;12.30;99.90;;;;;;5051607;28;20044;-34
2023/03/23 04:11:58;;;;;;;2.00;1.00;;;12.30;99.90;;;;;;5051416;28;20025;-35
2023/03/23 04:14:24;;;;;;;1.88;1.00;;;12.20;99.90;;;;;;5051479;28;20056;-36
2023/03/23 04:16:51;;;;;;;1.35;1.00;;;12.20;99.90;;;;;;5051223;28;20025;-34
2023/03/23 04:19:18;;;;;;;2.60;0.90;;;12.20;99.90;;;;;;5051424;28;20024;-36
2023/03/23 04:21:45;;;;;;;1.48;1.15;;;12.20;99.90;;;;;;5051653;28;20727;-35
2023/03/23 04:24:11;;;;;;;1.15;0.93;;;12.20;99.90;;;;;;5051631;28;20554;-36
2023/03/23 04:26:39;;;;;;;1.40;0.93;;;12.20;99.90;;;;;;5051061;28;20025;-35
2023/03/23 04:29:05;;;;;;;1.38;1.02;;;12.20;99.90;;;;;;5051446;28;20025;-38
2023/03/23 04:31:31;;;;;;;1.50;0.88;;;12.20;99.90;;;;;;5051577;28;20028;-35
2023/03/23 04:33:59;;;;;;;1.70;0.82;;;12.30;99.90;;;;;;5051953;28;20103;-35
2023/03/23 04:36:25;;;;;;;2.08;0.90;;;12.20;99.90;;;;;;5052506;28;20021;-38
2023/03/23 04:38:54;;;;;;;2.15;1.00;;;12.20;99.90;;;;;;5051529;28;20033;-36
2023/03/23 04:41:20;;;;;;;1.30;1.10;;;12.20;99.90;;;;;;5051636;28;20051;-36
2023/03/23 04:43:52;;;;;;;1.42;1.20;;;12.30;99.90;;;;;;5051040;28;20017;-35
2023/03/23 04:46:19;;;;;;;1.65;1.05;;;12.20;99.90;;;;;;5051074;28;20107;-35
2023/03/23 04:48:45;;;;;;;1.80;1.08;;;12.30;99.90;;;;;;5055214;28;20383;-35
2023/03/23 04:51:14;;;;;;;2.08;1.00;;;12.20;99.90;;;;;;5055995;28;20163;-35
2023/03/23 04:53:40;;;;;;;1.40;0.95;;;12.20;99.90;;;;;;5055589;28;20422;-37
2023/03/23 04:56:07;;;;;;;1.83;1.10;;;12.20;99.90;;;;;;5054719;28;20487;-35
2023/03/23 04:58:33;;;;;;;1.00;0.90;;;12.20;99.90;;;;;;5055252;28;20036;-38
2023/03/23 05:01:00;;;;;;;1.40;0.90;;;12.20;99.90;;;;;;5055050;28;20159;-37
2023/03/23 05:03:26;;;;;;;1.40;1.00;;;12.20;99.90;;;;;;5056106;28;20032;-35
2023/03/23 05:05:53;;;;;;;1.13;0.90;;;12.20;99.90;;;;;;5055462;28;20134;-35
2023/03/23 05:08:24;;;;;;;2.17;1.20;;;12.20;99.90;;;;;;5054634;28;20112;-35
2023/03/23 05:10:55;;;;;;;1.10;0.90;;;12.20;99.90;;;;;;5055869;28;20072;-34
2023/03/23 05:13:21;;;;;;;1.17;1.00;;;12.20;99.90;;;;;;5055434;28;20039;-38
2023/03/23 05:15:47;;;;;;;1.35;1.05;;;12.20;99.90;;;;;;5055764;28;20116;-36
2023/03/23 05:18:14;;;;;;;1.20;1.00;;;12.20;99.90;;;;;;5055303;28;20024;-35
2023/03/23 05:20:41;;;;;;;1.42;1.00;;;12.20;99.90;;;;;;5056716;28;20044;-35
2023/03/23 05:23:08;;;;;;;1.52;1.00;;;12.20;99.90;;;;;;5055561;28;20029;-35
2023/03/23 05:25:39;;;;;;;2.17;0.93;;;12.20;99.90;;;;;;5055420;28;20553;-40
2023/03/23 05:28:06;;;;;;;1.30;0.98;;;12.20;99.90;;;;;;5055328;28;20501;-38
2023/03/23 05:30:32;;;;;;;2.10;1.20;;;12.20;99.90;;;;;;5054374;28;20387;-38
2023/03/23 05:32:59;;;;;;;1.75;1.20;;;12.20;99.90;;;;;;5055888;28;20113;-35
2023/03/23 05:35:25;;;;;;;1.60;0.93;;;12.20;99.90;;;;;;5055266;28;20029;-36
2023/03/23 05:37:53;;;;;;;1.42;1.00;;;12.20;99.90;;;;;;5054453;28;20385;-38
2023/03/23 05:40:20;;;;;;;1.00;0.90;;;12.20;99.90;;;;;;5054586;28;20459;-36
2023/03/23 05:42:45;;;;;;;1.75;0.90;;;12.20;99.90;;;;;;5054194;28;20415;-36
2023/03/23 05:45:11;;;;;;;1.50;0.90;;;12.10;99.90;;;;;;5054267;28;20056;-37
2023/03/23 05:47:38;;;;;;;1.63;1.05;;;12.20;99.90;;;;;;5054754;28;20663;-38
2023/03/23 05:50:06;;;;;;;1.55;0.90;;;12.20;99.90;;;;;;5054063;28;20029;-36
2023/03/23 05:52:32;;;;;;;1.27;1.00;;;12.20;99.90;;;;;;5053740;28;20029;-36
2023/03/23 05:54:58;;;;;;;1.15;0.93;;;12.20;99.90;;;;;;5054393;28;20037;-35
2023/03/23 05:57:24;;;;;;;1.55;0.90;;;12.20;99.90;;;;;;5054172;28;20027;-38
2023/03/23 05:59:50;;;;;;;1.80;1.23;;;12.20;99.90;;;;;;5054511;28;20100;-37
2023/03/23 06:02:16;;;;;;;1.42;1.13;;;12.20;99.90;;;;;;5054279;28;20508;-34
2023/03/23 06:04:42;;;;;;;1.60;1.02;;;12.20;99.90;;;;;;5054404;28;20048;-35
2023/03/23 06:07:13;;;;;;;1.10;0.80;;;12.20;99.90;;;;;;5053844;28;20077;-36
2023/03/23 06:09:40;;;;;;;1.08;0.90;;;12.20;99.90;;;;;;5055456;28;20025;-37
2023/03/23 06:12:06;;;;;;;2.60;1.15;;;12.20;99.90;;;;;;5054475;28;20036;-35
2023/03/23 06:14:32;;;;;;;2.60;0.80;;;12.20;99.90;;;;;;5054983;28;20438;-35
2023/03/23 06:16:57;;;;;;;1.52;1.00;;;12.20;99.90;;;;;;5053798;28;20021;-34
2023/03/23 06:19:23;;;;;;;1.80;1.10;;;12.20;99.90;;;;;;5054375;28;20079;-34
2023/03/23 06:21:48;;;;;;;0.90;0.80;;;12.20;99.90;;;;;;5053204;28;20064;-38
2023/03/23 06:24:14;;;;;;;2.03;1.08;;;12.20;99.90;;;;;;5054019;28;20032;-36
2023/03/23 06:26:44;;;;;;;1.70;0.90;;;12.20;99.90;;;;;;5052916;28;20502;-35
2023/03/23 06:29:13;;;;;;;1.55;0.95;;;12.20;99.90;;;;;;5053373;28;20021;-37
2023/03/23 06:31:47;;;;;;;1.40;1.10;;;12.20;99.90;;;;;;5053147;28;20021;-39
2023/03/23 06:34:13;;;;;;;1.23;1.02;;;12.10;99.90;;;;;;5053431;28;20388;-38
2023/03/23 06:36:38;;;;;;;2.67;1.13;;;12.10;99.90;;;;;;5052476;28;20021;-36
2023/03/23 06:39:05;;;;;;;2.22;1.10;;;12.20;99.90;;;;;;5053425;28;20036;-34
2023/03/23 06:41:31;;;;;;;1.38;1.00;;;12.10;99.90;;;;;;5052989;28;20083;-37
2023/03/23 06:43:57;;;;;;;1.38;0.90;;;12.20;99.90;;;;;;5053699;28;20387;-34
2023/03/23 06:46:23;;;;;;;1.08;0.88;;;12.20;99.90;;;;;;5052621;28;20032;-36
2023/03/23 06:48:50;;;;;;;1.15;0.98;;;12.20;99.90;;;;;;5052826;28;20311;-38
2023/03/23 06:51:16;;;;;;;1.08;0.95;;;12.20;99.90;;;;;;5052597;28;20028;-37
2023/03/23 06:53:42;;;;;;;1.08;0.90;;;12.20;99.90;;;;;;5053471;28;20390;-40
2023/03/23 06:56:08;;;;;;;1.60;1.10;;;12.10;99.90;;;;;;5052141;28;20158;-38
2023/03/23 06:58:35;;;;;;;2.70;1.00;;;12.10;99.90;;;;;;5054308;28;20055;-35
2023/03/23 07:01:00;;;;;;;1.85;0.98;;;12.20;99.90;;;;;;5052900;28;20079;-35
2023/03/23 07:03:27;;;;;;;1.85;0.85;;;12.20;99.90;;;;;;5052752;28;20029;-35
2023/03/23 07:05:54;;;;;;;1.27;0.85;;;12.20;99.90;;;;;;5052469;28;20017;-35
2023/03/23 07:08:20;;;;;;;1.27;1.17;;;12.10;99.90;;;;;;5053679;28;20021;-35
2023/03/23 07:10:46;;;;;;;1.30;1.10;;;12.10;99.90;;;;;;5052790;28;20029;-35
2023/03/23 07:13:11;;;;;;;1.10;1.00;;;12.10;99.90;;;;;;5052969;28;20052;-35
2023/03/23 07:15:39;;;;;;;1.40;1.00;;;12.10;99.90;;;;;;5052348;28;20514;-35
2023/03/23 07:18:05;;;;;;;1.00;0.90;;;12.20;99.90;;;;;;5052202;28;20410;-35
2023/03/23 07:20:31;;;;;;;1.92;0.90;;;12.10;99.90;;;;;;5052199;28;20021;-35
2023/03/23 07:22:57;;;;;;;2.08;1.00;;;12.10;99.90;;;;;;5052125;28;20029;-36
2023/03/23 07:25:22;;;;;;;1.02;0.90;;;12.10;99.90;;;;;;5051925;28;20029;-35
2023/03/23 07:27:48;;;;;;;1.60;0.90;;;12.10;99.90;;;;;;5051672;28;20095;-35
2023/03/23 07:30:14;;;;;;;1.17;0.90;;;12.10;99.90;;;;;;5052753;28;20033;-35
2023/03/23 07:32:41;;;;;;;1.02;0.90;;;12.10;99.90;;;;;;5052532;28;20036;-35
2023/03/23 07:35:08;;;;;;;1.98;1.05;;;12.10;99.90;;;;;;5052428;28;20031;-35
2023/03/23 07:37:35;;;;;;;1.23;0.90;;;12.10;99.90;;;;;;5051932;28;20021;-35
2023/03/23 07:40:14;;;;;;;1.00;0.70;;;12.10;99.90;;;;;;5051608;28;20021;-35
2023/03/23 07:42:41;;;;;;;1.27;1.00;;;12.10;99.90;;;;;;5051652;28;20478;-35
2023/03/23 07:45:07;;;;;;;2.15;0.90;;;12.10;99.90;;;;;;5051676;28;20479;-35
2023/03/23 07:47:33;;;;;;;1.20;0.90;;;12.10;99.90;;;;;;5051112;28;20134;-35
2023/03/23 07:49:58;;;;;;;1.38;0.90;;;12.10;99.90;;;;;;5051527;28;20107;-35
2023/03/23 07:52:24;;;;;;;1.42;1.05;;;12.10;99.90;;;;;;5051365;28;20036;-36
2023/03/23 07:54:49;;;;;;;2.22;1.20;;;12.10;99.90;;;;;;5051702;28;20056;-35
2023/03/23 07:57:15;;;;;;;3.72;1.00;;;12.10;99.90;;;;;;5051121;28;20032;-35
2023/03/23 07:59:41;;;;;;;1.30;1.00;;;12.10;99.90;;;;;;5052053;28;20017;-35
2023/03/23 08:02:09;;;;;;;1.60;1.10;;;12.10;99.90;;;;;;5051852;28;20052;-35
2023/03/23 08:04:37;;;;;;;1.40;1.10;;;12.10;99.90;;;;;;5051154;28;20095;-37
2023/03/23 08:07:04;;;;;;;3.17;0.93;;;12.10;99.90;;;;;;5052503;28;20118;-37
2023/03/23 08:09:30;;;;;;;1.30;1.10;;;12.10;99.90;;;;;;5051860;28;20028;-36
2023/03/23 08:11:57;;;;;;;1.45;0.95;;;12.10;99.90;;;;;;5051752;28;20033;-38
2023/03/23 08:14:26;;;;;;;1.48;1.10;;;12.10;99.90;;;;;;5051440;28;20025;-38
2023/03/23 08:16:52;;;;;;;1.70;1.00;;;12.10;99.90;;;;;;5050475;28;20035;-35
2023/03/23 08:19:18;;;;;;;2.35;1.10;;;12.10;99.90;;;;;;5051006;28;20442;-35
2023/03/23 08:21:43;;;;;;;1.40;1.13;;;12.10;99.90;;;;;;5050579;28;20021;-34
2023/03/23 08:24:11;;;;;;;1.77;1.23;;;12.10;99.90;;;;;;5051442;28;20017;-36
2023/03/23 08:26:37;;;;;;;1.33;0.90;;;12.10;99.90;;;;;;5051900;28;20018;-35
2023/03/23 08:29:03;;;;;;;1.58;1.00;;;12.10;99.90;;;;;;5051804;28;20094;-35
2023/03/23 08:31:29;;;;;;;1.38;1.00;;;12.10;99.90;;;;;;5051102;28;20108;-39
2023/03/23 08:33:56;;;;;;;1.65;1.00;;;12.10;99.90;;;;;;5050798;28;20293;-36
2023/03/23 08:36:22;;;;;;;1.45;1.10;;;12.10;99.90;;;;;;5050775;28;20021;-38
2023/03/23 08:38:48;;;;;;;1.73;1.10;;;12.10;99.90;;;;;;5051191;28;20116;-35
2023/03/23 08:41:14;;;;;;;1.70;1.23;;;12.10;99.90;;;;;;5051180;28;20096;-34
2023/03/23 08:43:40;;;;;;;1.77;0.98;;;12.10;99.90;;;;;;5050717;28;20021;-35
2023/03/23 08:46:09;;;;;;;1.10;0.85;;;12.10;99.90;;;;;;5050659;28;20039;-35
2023/03/23 08:48:35;;;;;;;1.63;1.10;;;12.10;99.90;;;;;;5051600;28;20021;-38
2023/03/23 08:51:01;;;;;;;1.58;1.05;;;12.10;99.90;;;;;;5051187;28;20052;-35
2023/03/23 08:53:30;;;;;;;1.20;1.00;;;12.10;99.90;;;;;;5051340;28;20386;-34
2023/03/23 08:55:56;;;;;;;1.70;1.10;;;12.20;99.90;;;;;;5051357;28;20029;-35
2023/03/23 08:58:22;;;;;;;1.80;1.00;;;12.10;99.90;;;;;;5051472;28;20021;-36
2023/03/23 09:00:48;;;;;;;1.55;1.02;;;12.10;99.90;;;;;;5050498;28;20031;-38
2023/03/23 09:03:15;;;;;;;1.45;1.05;;;12.20;99.90;;;;;;5050583;28;20029;-38
2023/03/23 09:05:45;;;;;;;1.05;0.80;;;12.10;99.90;;;;;;5051229;28;20024;-36
2023/03/23 09:08:12;;;;;;;3.38;1.10;;;12.10;99.90;;;;;;5050442;28;20036;-35
2023/03/23 09:10:38;;;;;;;1.75;1.10;;;12.10;99.90;;;;;;5050909;28;20429;-36
2023/03/23 09:13:05;;;;;;;1.92;1.23;;;12.10;99.90;;;;;;5050778;28;20040;-35
2023/03/23 09:15:31;;;;;;;1.83;1.10;;;12.10;99.90;;;;;;5050636;28;20506;-36
2023/03/23 09:17:57;;;;;;;1.52;1.02;;;12.20;99.90;;;;;;5051330;28;20029;-36
2023/03/23 09:20:25;;;;;;;1.40;1.10;;;12.10;99.90;;;;;;5050604;28;20033;-35
2023/03/23 09:22:53;;;;;;;1.48;1.08;;;12.20;99.90;;;;;;5050493;28;20135;-35
2023/03/23 09:25:22;;;;;;;2.75;1.20;;;12.20;99.90;;;;;;5050496;28;20390;-35
2023/03/23 09:27:56;;;;;;;2.05;1.05;;;12.20;99.90;;;;;;5049878;28;20021;-35
2023/03/23 09:30:26;;;;;;;1.77;1.10;;;12.20;99.90;;;;;;5051619;28;20024;-35
2023/03/23 09:32:53;;;;;;;2.20;1.10;;;12.20;99.90;;;;;;5052154;28;20031;-36
2023/03/23 09:35:22;;;;;;;2.13;1.10;;;12.10;99.90;;;;;;5053986;28;20029;-38
2023/03/23 09:37:50;;;;;;;1.88;1.00;;;12.20;99.90;;;;;;5054174;28;20024;-38
2023/03/23 09:40:21;;;;;;;1.38;0.93;;;12.20;99.90;;;;;;5054913;28;20036;-35
2023/03/23 09:43:13;;;;;;;2.60;1.10;;;12.20;99.90;;;;;;5054742;28;20025;-38
2023/03/23 09:45:45;;;;;;;1.45;1.05;;;12.20;99.90;;;;;;5055021;28;20447;-34
2023/03/23 09:48:29;;;;;;;2.03;1.00;;;12.20;99.90;;;;;;5054238;28;20150;-36
2023/03/23 09:51:04;;;;;;;1.83;1.10;;;12.10;99.90;;;;;;5054373;28;20389;-38
2023/03/23 09:53:39;;;;;;;1.30;1.02;;;12.10;99.90;;;;;;5054106;28;20079;-35
2023/03/23 09:56:11;;;;;;;1.25;1.00;;;12.20;99.90;;;;;;5053414;28;20116;-46
2023/03/23 09:58:53;;;;;;;1.25;0.90;;;12.10;99.90;;;;;;5054038;28;20021;-37
2023/03/23 10:01:36;;;;;;;1.98;1.10;;;12.20;99.90;;;;;;5054064;28;20086;-35
2023/03/23 10:04:13;;;;;;;1.38;1.10;;;12.20;99.90;;;;;;5053730;28;20017;-35
2023/03/23 10:06:39;;;;;;;2.67;1.20;;;12.20;99.90;;;;;;5053118;28;20450;-35
2023/03/23 10:09:06;;;;;;;1.40;0.90;;;12.20;99.90;;;;;;5053511;28;20486;-36
2023/03/23 10:11:53;;;;;;;3.47;1.10;;;12.20;99.90;;;;;;5053768;28;20417;-37
2023/03/23 10:14:28;;;;;;;1.40;1.20;;;12.20;99.90;;;;;;5053657;28;20139;-38
2023/03/23 10:17:28;;;;;;;1.83;1.20;;;12.20;99.90;;;;;;5053216;28;20493;-35
2023/03/23 10:20:32;;;;;;;2.10;1.27;;;12.20;99.90;;;;;;5048567;28;20438;-34
2023/03/23 10:23:03;;;;;;;2.08;1.10;;;12.20;99.90;;;;;;5053556;28;20111;-36
2023/03/23 10:25:33;;;;;;;2.20;1.00;;;12.20;99.90;;;;;;5053236;28;20033;-35
2023/03/23 10:28:32;;;;;;;1.40;0.93;;;12.20;99.90;;;;;;5052502;28;20055;-37
2023/03/23 10:30:59;;;;;;;2.53;1.25;;;12.20;99.90;;;;;;5051783;28;20037;-37
2023/03/23 10:33:32;;;;;;;1.63;1.05;;;12.20;99.90;;;;;;5052967;28;20032;-38
2023/03/23 10:36:12;;;;;;;1.95;1.20;;;12.30;99.90;;;;;;5052668;28;20526;-40
2023/03/23 10:38:49;;;;;;;3.38;1.30;;;12.30;99.90;;;;;;5053141;28;20048;-39
2023/03/23 10:41:19;;;;;;;3.25;1.27;;;12.30;99.90;;;;;;5053369;28;20083;-38
2023/03/23 10:43:49;;;;;;;1.65;1.10;;;12.30;99.90;;;;;;5051983;28;20032;-35
2023/03/23 10:46:32;;;;;;;2.08;1.17;;;12.30;99.90;;;;;;5052383;28;20490;-35
2023/03/23 10:49:01;;;;;;;3.43;1.10;;;12.30;99.90;;;;;;5052804;28;20031;-34
2023/03/23 10:51:41;;;;;;;1.35;0.98;;;12.30;99.90;;;;;;5052881;28;20350;-37
2023/03/23 10:54:06;;;;;;;2.17;1.40;;;12.30;99.90;;;;;;5052467;28;20558;-40
2023/03/23 10:56:41;;;;;;;1.60;1.25;;;12.30;99.90;;;;;;5052261;28;20112;-37
2023/03/23 10:59:27;;;;;;;2.25;1.13;;;12.40;99.90;;;;;;5052653;28;20063;-34
2023/03/23 11:01:56;;;;;;;1.00;0.80;;;12.40;99.90;;;;;;5052569;28;20032;-37
2023/03/23 11:04:22;;;;;;;1.55;1.00;;;12.40;99.90;;;;;;5052403;28;20025;-36
2023/03/23 11:06:53;;;;;;;2.40;1.00;;;12.40;99.90;;;;;;5051944;28;20431;-35
2023/03/23 11:09:21;;;;;;;1.27;0.80;;;12.40;99.90;;;;;;5052374;28;20025;-35
2023/03/23 11:11:52;;;;;;;2.13;1.23;;;12.40;99.90;;;;;;5052236;28;20418;-36
2023/03/23 11:14:25;;;;;;;1.95;1.17;;;12.40;99.90;;;;;;5052468;28;20036;-37
2023/03/23 11:16:55;;;;;;;2.10;1.48;;;12.40;99.90;;;;;;5051773;28;20021;-38
2023/03/23 11:19:37;;;;;;;1.70;1.20;;;12.40;99.90;;;;;;5052184;28;20024;-35
2023/03/23 11:22:20;;;;;;;1.73;1.10;;;12.40;99.90;;;;;;5052308;28;20104;-35
2023/03/23 11:24:51;;;;;;;1.48;1.10;;;12.40;99.90;;;;;;5052174;28;20024;-35
2023/03/23 11:27:17;;;;;;;1.92;1.27;;;12.40;99.90;;;;;;5051519;28;20021;-35
2023/03/23 11:29:59;;;;;;;1.38;1.00;;;12.40;99.90;;;;;;5051978;28;20025;-36
2023/03/23 11:32:27;;;;;;;2.03;1.10;;;12.40;99.90;;;;;;5051959;28;20029;-35
2023/03/23 11:34:59;;;;;;;2.50;1.10;;;12.40;99.90;;;;;;5051772;28;20104;-35
2023/03/23 11:37:48;;;;;;;2.22;1.17;;;12.40;99.90;;;;;;5051616;28;20075;-36
2023/03/23 11:40:21;;;;;;;1.73;1.20;;;12.40;99.90;;;;;;5051812;28;20529;-38
2023/03/23 11:42:53;;;;;;;2.13;1.00;;;12.40;99.90;;;;;;5051692;28;20550;-35
2023/03/23 11:45:22;;;;;;;1.85;1.10;;;12.40;99.90;;;;;;5051703;28;20108;-34
2023/03/23 11:48:12;;;;;;;1.20;0.93;;;12.40;99.90;;;;;;5051521;28;20078;-40
2023/03/23 11:51:03;;;;;;;2.55;1.40;;;12.40;99.90;;;;;;5051505;28;20475;-35
2023/03/23 11:53:58;;;;;;;1.38;1.00;;;12.40;99.90;;;;;;5051287;28;20025;-36
2023/03/23 11:56:27;;;;;;;;;;;12.40;99.90;;;;;;5051203;28;20028;-35
2023/03/23 11:58:55;;;;;;;1.88;1.15;;;12.40;99.90;;;;;;5051641;28;19966;-35
2023/03/23 12:01:29;;;;;;;1.30;0.90;;;12.40;99.90;;;;;;5051558;28;20372;-35
2023/03/23 12:04:33;;;;;;;1.98;1.20;;;12.40;99.90;;;;;;5051352;28;20032;-36
2023/03/23 12:07:32;;;;;;;2.22;1.10;;;12.40;99.90;;;;;;5050971;28;20391;-36
2023/03/23 12:10:13;;;;;;;2.80;1.10;;;12.40;99.90;;;;;;5051418;28;20032;-37
2023/03/23 12:13:07;;;;;;;2.30;1.17;;;12.40;99.90;;;;;;5051296;28;20102;-35
2023/03/23 12:15:38;;;;;;;2.33;1.00;;;12.40;99.90;;;;;;5051207;28;20079;-35
2023/03/23 12:18:35;;;;;;;1.83;1.08;;;12.40;99.90;;;;;;5050925;28;20044;-37
2023/03/23 12:21:21;;;;;;;1.35;1.02;;;12.40;99.90;;;;;;5051516;28;20017;-36
2023/03/23 12:24:22;;;;;;;1.83;1.00;;;12.40;99.90;;;;;;5051544;28;20024;-38
2023/03/23 12:27:01;;;;;;;1.63;1.02;;;12.40;99.90;;;;;;5050703;28;20482;-37
2023/03/23 12:29:38;;;;;;;1.67;1.20;;;12.40;99.90;;;;;;5051199;28;20451;-35
2023/03/23 12:32:28;;;;;;;1.83;1.20;;;12.40;99.90;;;;;;5051046;28;20110;-36
2023/03/23 12:35:13;;;;;;;1.40;1.10;;;12.40;99.90;;;;;;5050917;28;20029;-35
2023/03/23 12:37:47;;;;;;;1.80;1.27;;;12.40;99.90;;;;;;5050632;28;20487;-35
2023/03/23 12:40:23;;;;;;;1.40;1.10;;;12.50;99.90;;;;;;5051280;28;20056;-37
2023/03/23 12:43:13;;;;;;;1.55;1.10;;;12.50;99.90;;;;;;5051049;28;20356;-35
2023/03/23 12:45:56;;;;;;;1.75;1.30;;;12.50;99.90;;;;;;5050600;28;20128;-36
2023/03/23 12:48:48;;;;;;;1.90;1.08;;;12.50;99.90;;;;;;5051023;28;20186;-35
2023/03/23 12:51:42;;;;;;;1.48;1.20;;;12.50;99.90;;;;;;5050609;28;20044;-35
2023/03/23 12:54:24;;;;;;;2.92;1.13;;;12.50;99.90;;;;;;5050607;28;20025;-35
2023/03/23 12:57:12;;;;;;;1.52;0.95;;;12.50;99.90;;;;;;5050333;28;20025;-35
2023/03/23 13:00:10;;;;;;;1.55;0.77;;;12.40;99.90;;;;;;5050823;28;20475;-37
2023/03/23 13:02:50;;;;;;;1.55;1.13;;;12.40;99.90;;;;;;5051133;28;20120;-38
2023/03/23 13:05:23;;;;;;;1.33;1.10;;;12.50;99.90;;;;;;5050067;28;20108;-36
2023/03/23 13:08:12;;;;;;;2.25;0.82;;;12.40;99.90;;;;;;5052002;28;20100;-38